»·PEaware :: N6182G KAJO-KVCV

N6182G :: KAJO-KVCV

FLIGHT INFORMATION

Flight Status: Arrived
Operator: Privately registered:
United States
More flights under this callsign
Pilot: Paul A. (20189)
Aircraft: CESSNA 182 SKYLANE
(C182)
More flights by this aircraft type
Origin: KAJO Corona Mun
United States
Destination: KVCV Socal Logistics
United States
More flights between these airports :: More routes between these airports
Route: PDZ V442 APLES
File this flight plan on PilotEdge
Remarks:
Altitude:
(Current/Filed)
9,000ft
Speed:
(Current/Filed)
120kts
Departed: 04-Oct-18 10:16 AM
Arrived: 04-Oct-18 11:16 AM
Distance/Time
Traveled:
43nm/1:00
Distance/Time
To Go:
Arrived

Flight Plot

Page will automatically refresh every two minutes.


Map Options




Map Legend


Flown Route
Filed Route
Departure Airport
Arrival Airport
Navaid (VOR, NDB)
Fix

Horizontal Profiles

Position Reports

Time Latitude Longitude Heading Altitude Ground
Speed
04-Oct-18 10:05 33.896964 -117.605738 145 536ft 0kts
04-Oct-18 10:06 33.896963 -117.605738 145 536ft 0kts
04-Oct-18 10:07 33.896962 -117.605737 145 536ft 0kts
04-Oct-18 10:08 33.896961 -117.605736 145 536ft 0kts
04-Oct-18 10:09 33.896942 -117.605798 20 536ft 0kts
04-Oct-18 10:10 33.896943 -117.605797 20 536ft 0kts
04-Oct-18 10:11 33.896944 -117.605797 20 536ft 0kts
04-Oct-18 10:12 33.896946 -117.605796 20 536ft 0kts
04-Oct-18 10:13 33.896947 -117.605796 20 536ft 0kts
04-Oct-18 10:14 33.897130 -117.605702 34 536ft 9kts
04-Oct-18 10:15 33.897266 -117.602006 88 536ft 6kts
04-Oct-18 10:16 33.897299 -117.598463 89 536ft 10kts
04-Oct-18 10:17 33.897659 -117.597477 296 536ft 1kts
04-Oct-18 10:18 33.898208 -117.608212 303 901ft 63kts
04-Oct-18 10:19 33.916867 -117.617248 15 1795ft 94kts
04-Oct-18 10:20 33.921651 -117.589381 96 2676ft 106kts
04-Oct-18 10:21 33.920276 -117.549907 95 3583ft 130kts
04-Oct-18 10:22 33.933540 -117.511225 43 4479ft 142kts
04-Oct-18 10:23 33.963360 -117.499793 300 5347ft 116kts
04-Oct-18 10:24 33.946519 -117.522156 191 6223ft 123kts
04-Oct-18 10:25 33.913434 -117.536862 242 7023ft 135kts
04-Oct-18 10:26 33.936979 -117.555491 37 7802ft 145kts
04-Oct-18 10:27 33.962512 -117.520990 65 8605ft 140kts
04-Oct-18 10:28 33.983276 -117.488375 0 8998ft 137kts
04-Oct-18 10:29 34.020809 -117.468217 23 8985ft 157kts
04-Oct-18 10:30 34.059020 -117.445466 24 8991ft 151kts
04-Oct-18 10:31 34.096514 -117.422944 24 8996ft 150kts
04-Oct-18 10:32 34.133676 -117.400565 24 8998ft 149kts
04-Oct-18 10:33 34.171192 -117.377950 24 8991ft 142kts
04-Oct-18 10:34 34.206164 -117.356872 24 9006ft 134kts
04-Oct-18 10:35 34.238653 -117.337279 24 9014ft 130kts
04-Oct-18 10:36 34.272522 -117.316844 24 9017ft 140kts
04-Oct-18 10:37 34.307478 -117.295681 24 9002ft 139kts
04-Oct-18 10:38 34.342179 -117.274673 24 9001ft 138kts
04-Oct-18 10:39 34.376880 -117.253655 24 9011ft 144kts
04-Oct-18 10:40 34.413825 -117.231243 25 8997ft 154kts
04-Oct-18 10:41 34.451725 -117.208210 25 9024ft 152kts
04-Oct-18 10:42 34.488730 -117.185717 25 9023ft 144kts
04-Oct-18 10:43 34.524448 -117.164015 25 9031ft 145kts
04-Oct-18 10:44 34.563043 -117.146719 6 9022ft 152kts
04-Oct-18 10:45 34.603361 -117.143919 355 8900ft 137kts
04-Oct-18 10:46 34.641181 -117.150267 344 8287ft 132kts
04-Oct-18 10:47 34.675869 -117.164284 333 7699ft 137kts
04-Oct-18 10:48 34.708239 -117.185791 323 7002ft 119kts
04-Oct-18 10:49 34.735617 -117.212706 313 6616ft 128kts
04-Oct-18 10:50 34.759305 -117.245784 303 6612ft 141kts
04-Oct-18 10:51 34.778885 -117.286078 292 6424ft 120kts
04-Oct-18 10:52 34.790231 -117.323177 283 5629ft 119kts
04-Oct-18 10:53 34.795443 -117.359526 256 5196ft 95kts
04-Oct-18 10:54 34.771294 -117.374410 187 4605ft 105kts
04-Oct-18 10:55 34.741048 -117.377102 186 4297ft 103kts
04-Oct-18 10:56 34.709694 -117.379878 185 4317ft 132kts
04-Oct-18 10:57 34.679101 -117.382561 186 3966ft 104kts
04-Oct-18 10:58 34.650304 -117.385914 190 3271ft 103kts
04-Oct-18 10:59 34.624752 -117.387007 182 3742ft 100kts
04-Oct-18 11:00 34.606469 -117.413912 242 4543ft 117kts
04-Oct-18 11:01 34.604681 -117.453446 281 5329ft 127kts
04-Oct-18 11:02 34.612537 -117.494695 281 6000ft 129kts
04-Oct-18 11:03 34.621675 -117.540449 284 5995ft 134kts
04-Oct-18 11:04 34.631229 -117.579630 293 6002ft 108kts
04-Oct-18 11:05 34.656298 -117.575429 66 5325ft 116kts
04-Oct-18 11:06 34.655700 -117.535414 97 5001ft 115kts
04-Oct-18 11:07 34.645261 -117.504144 128 5025ft 112kts
04-Oct-18 11:08 34.630374 -117.470761 121 4935ft 120kts
04-Oct-18 11:09 34.615309 -117.436286 121 4176ft 108kts
04-Oct-18 11:10 34.603082 -117.404932 100 4021ft 106kts
04-Oct-18 11:11 34.619853 -117.378858 2 4020ft 108kts
04-Oct-18 11:12 34.647570 -117.389775 326 4018ft 106kts
04-Oct-18 11:13 34.644730 -117.413568 181 4013ft 101kts
04-Oct-18 11:14 34.616789 -117.416450 176 4020ft 102kts
04-Oct-18 11:15 34.601698 -117.390293 76 3950ft 115kts
04-Oct-18 11:16 34.621235 -117.365357 53 3662ft 86kts
04-Oct-18 11:17 34.606349 -117.359113 228 3050ft 84kts
04-Oct-18 11:18 34.594916 -117.372776 162 2854ft 13kts
04-Oct-18 11:19 34.593264 -117.372713 181 2854ft 12kts
04-Oct-18 11:20 34.590392 -117.371955 199 2854ft 0kts

Navigation Log

Ident Type
Flight plan parsing failed, navigation log unavailable